sensor_id;sensor_type;location;lat;lon;timestamp;pressure;altitude;pressure_sealevel;temperature;humidity
74794;BME280;63320;50.768;6.724;2022-12-10T00:00:32;99386.50;;;-0.12;82.46
74794;BME280;63320;50.768;6.724;2022-12-10T00:02:57;99392.59;;;-0.16;82.66
74794;BME280;63320;50.768;6.724;2022-12-10T00:05:23;99396.91;;;-0.16;82.41
74794;BME280;63320;50.768;6.724;2022-12-10T00:07:48;99394.22;;;-0.10;83.27
74794;BME280;63320;50.768;6.724;2022-12-10T00:10:14;99395.25;;;-0.19;83.46
74794;BME280;63320;50.768;6.724;2022-12-10T00:12:40;99388.00;;;0.02;82.05
74794;BME280;63320;50.768;6.724;2022-12-10T00:15:06;99397.31;;;-0.39;82.57
74794;BME280;63320;50.768;6.724;2022-12-10T00:17:32;99400.00;;;-0.45;83.52
74794;BME280;63320;50.768;6.724;2022-12-10T00:19:57;99395.06;;;-0.61;83.64
74794;BME280;63320;50.768;6.724;2022-12-10T00:22:23;99402.28;;;-0.81;84.87
74794;BME280;63320;50.768;6.724;2022-12-10T00:24:48;99403.22;;;-0.85;84.98
74794;BME280;63320;50.768;6.724;2022-12-10T00:27:13;99400.16;;;-0.56;84.26
74794;BME280;63320;50.768;6.724;2022-12-10T00:29:40;99408.94;;;-0.65;84.95
74794;BME280;63320;50.768;6.724;2022-12-10T00:32:05;99403.75;;;-0.63;84.22
74794;BME280;63320;50.768;6.724;2022-12-10T00:34:31;99407.50;;;-0.86;84.31
74794;BME280;63320;50.768;6.724;2022-12-10T00:36:56;99402.91;;;-0.64;84.94
74794;BME280;63320;50.768;6.724;2022-12-10T00:39:21;99399.09;;;-0.95;84.93
74794;BME280;63320;50.768;6.724;2022-12-10T00:41:47;99395.19;;;-0.67;84.69
74794;BME280;63320;50.768;6.724;2022-12-10T00:44:13;99403.00;;;-0.70;83.54
74794;BME280;63320;50.768;6.724;2022-12-10T00:46:39;99399.41;;;-0.61;83.64
74794;BME280;63320;50.768;6.724;2022-12-10T00:49:05;99391.25;;;-0.91;84.29
74794;BME280;63320;50.768;6.724;2022-12-10T00:51:31;99394.56;;;-0.29;82.92
74794;BME280;63320;50.768;6.724;2022-12-10T00:53:58;99389.28;;;-0.73;83.15
74794;BME280;63320;50.768;6.724;2022-12-10T00:56:25;99395.75;;;-1.03;84.17
74794;BME280;63320;50.768;6.724;2022-12-10T00:58:51;99404.53;;;-1.15;84.80
74794;BME280;63320;50.768;6.724;2022-12-10T01:01:19;99407.94;;;-1.13;84.93
74794;BME280;63320;50.768;6.724;2022-12-10T01:03:47;99398.63;;;-1.25;84.83
74794;BME280;63320;50.768;6.724;2022-12-10T01:06:15;99401.56;;;-0.91;85.31
74794;BME280;63320;50.768;6.724;2022-12-10T01:08:41;99395.00;;;-1.10;84.35
74794;BME280;63320;50.768;6.724;2022-12-10T01:11:08;99400.25;;;-1.18;84.83
74794;BME280;63320;50.768;6.724;2022-12-10T01:13:33;99411.38;;;-1.14;84.83
74794;BME280;63320;50.768;6.724;2022-12-10T01:16:00;99402.19;;;-1.34;85.13
74794;BME280;63320;50.768;6.724;2022-12-10T01:18:25;99410.84;;;-1.39;85.45
74794;BME280;63320;50.768;6.724;2022-12-10T01:20:52;99414.22;;;-1.36;85.24
74794;BME280;63320;50.768;6.724;2022-12-10T01:23:17;99411.25;;;-1.05;84.38
74794;BME280;63320;50.768;6.724;2022-12-10T01:25:42;99420.63;;;-1.01;84.51
74794;BME280;63320;50.768;6.724;2022-12-10T01:28:08;99422.41;;;-0.47;82.51
74794;BME280;63320;50.768;6.724;2022-12-10T01:30:33;99423.63;;;-1.30;83.42
74794;BME280;63320;50.768;6.724;2022-12-10T01:32:58;99430.72;;;-0.83;83.33
74794;BME280;63320;50.768;6.724;2022-12-10T01:35:24;99422.16;;;-1.51;84.63
74794;BME280;63320;50.768;6.724;2022-12-10T01:37:50;99425.47;;;-1.40;85.14
74794;BME280;63320;50.768;6.724;2022-12-10T01:40:16;99425.19;;;-1.18;84.11
74794;BME280;63320;50.768;6.724;2022-12-10T01:42:41;99443.91;;;-1.06;83.39
74794;BME280;63320;50.768;6.724;2022-12-10T01:45:10;99434.03;;;-0.74;82.91
74794;BME280;63320;50.768;6.724;2022-12-10T01:47:36;99435.66;;;-0.69;82.58
74794;BME280;63320;50.768;6.724;2022-12-10T01:50:04;99433.97;;;-1.33;83.57
74794;BME280;63320;50.768;6.724;2022-12-10T01:52:30;99441.19;;;-1.60;84.73
74794;BME280;63320;50.768;6.724;2022-12-10T01:54:57;99438.44;;;-1.47;84.64
74794;BME280;63320;50.768;6.724;2022-12-10T01:57:24;99440.34;;;-0.94;83.58
74794;BME280;63320;50.768;6.724;2022-12-10T01:59:52;99436.06;;;-0.95;82.59
74794;BME280;63320;50.768;6.724;2022-12-10T02:02:27;99445.53;;;-0.95;82.77
74794;BME280;63320;50.768;6.724;2022-12-10T02:05:02;99452.06;;;-0.73;82.74
74794;BME280;63320;50.768;6.724;2022-12-10T02:07:39;99453.53;;;-0.57;81.16
74794;BME280;63320;50.768;6.724;2022-12-10T02:10:17;99450.69;;;-0.97;82.72
74794;BME280;63320;50.768;6.724;2022-12-10T02:12:47;99450.59;;;-0.89;83.11
74794;BME280;63320;50.768;6.724;2022-12-10T02:15:16;99458.69;;;-1.17;83.18
74794;BME280;63320;50.768;6.724;2022-12-10T02:17:44;99453.88;;;-1.44;84.25
74794;BME280;63320;50.768;6.724;2022-12-10T02:20:13;99455.66;;;-1.51;84.68
74794;BME280;63320;50.768;6.724;2022-12-10T02:22:44;99453.78;;;-1.37;84.91
74794;BME280;63320;50.768;6.724;2022-12-10T02:25:14;99454.78;;;-0.82;83.15
74794;BME280;63320;50.768;6.724;2022-12-10T02:27:46;99451.56;;;-0.98;82.68
74794;BME280;63320;50.768;6.724;2022-12-10T02:30:14;99452.03;;;-1.33;83.41
74794;BME280;63320;50.768;6.724;2022-12-10T02:32:41;99442.91;;;-1.62;84.27
74794;BME280;63320;50.768;6.724;2022-12-10T02:35:12;99446.34;;;-1.63;84.12
74794;BME280;63320;50.768;6.724;2022-12-10T02:37:42;99446.06;;;-1.38;84.00
74794;BME280;63320;50.768;6.724;2022-12-10T02:40:13;99455.97;;;-1.06;82.90
74794;BME280;63320;50.768;6.724;2022-12-10T02:42:42;99452.16;;;-0.79;82.64
74794;BME280;63320;50.768;6.724;2022-12-10T02:45:10;99447.97;;;-0.88;81.63
74794;BME280;63320;50.768;6.724;2022-12-10T02:47:38;99448.50;;;-1.24;82.98
74794;BME280;63320;50.768;6.724;2022-12-10T02:50:06;99452.41;;;-0.97;82.08
74794;BME280;63320;50.768;6.724;2022-12-10T02:52:32;99451.16;;;-1.31;82.25
74794;BME280;63320;50.768;6.724;2022-12-10T02:54:57;99447.44;;;-1.11;82.34
74794;BME280;63320;50.768;6.724;2022-12-10T02:57:31;99453.03;;;-1.46;83.48
74794;BME280;63320;50.768;6.724;2022-12-10T03:00:04;99458.84;;;-0.66;81.86
74794;BME280;63320;50.768;6.724;2022-12-10T03:02:37;99461.91;;;-0.39;79.86
74794;BME280;63320;50.768;6.724;2022-12-10T03:05:12;99462.28;;;-0.64;80.25
74794;BME280;63320;50.768;6.724;2022-12-10T03:07:42;99457.81;;;-0.54;80.33
74794;BME280;63320;50.768;6.724;2022-12-10T03:10:14;99458.44;;;-0.38;79.51
74794;BME280;63320;50.768;6.724;2022-12-10T03:12:47;99450.00;;;-0.49;79.29
74794;BME280;63320;50.768;6.724;2022-12-10T03:15:13;99459.84;;;-0.74;79.87
74794;BME280;63320;50.768;6.724;2022-12-10T03:17:41;99463.94;;;-0.61;79.81
74794;BME280;63320;50.768;6.724;2022-12-10T03:20:11;99462.50;;;-0.79;80.98
74794;BME280;63320;50.768;6.724;2022-12-10T03:22:39;99452.38;;;-0.94;80.25
74794;BME280;63320;50.768;6.724;2022-12-10T03:25:07;99456.28;;;-0.67;80.76
74794;BME280;63320;50.768;6.724;2022-12-10T03:27:34;99465.44;;;-0.46;80.05
74794;BME280;63320;50.768;6.724;2022-12-10T03:30:03;99466.91;;;-0.32;79.42
74794;BME280;63320;50.768;6.724;2022-12-10T03:32:29;99465.91;;;-0.21;79.77
74794;BME280;63320;50.768;6.724;2022-12-10T03:34:56;99461.81;;;-0.36;79.02
74794;BME280;63320;50.768;6.724;2022-12-10T03:37:25;99476.47;;;-0.37;80.36
74794;BME280;63320;50.768;6.724;2022-12-10T03:39:51;99467.34;;;-1.21;81.94
74794;BME280;63320;50.768;6.724;2022-12-10T03:42:17;99467.09;;;-0.42;81.05
74794;BME280;63320;50.768;6.724;2022-12-10T03:44:42;99468.88;;;-0.44;81.42
74794;BME280;63320;50.768;6.724;2022-12-10T03:47:11;99472.00;;;-0.27;80.56
74794;BME280;63320;50.768;6.724;2022-12-10T03:49:37;99465.75;;;-1.31;83.01
74794;BME280;63320;50.768;6.724;2022-12-10T03:52:03;99472.75;;;-0.76;83.74
74794;BME280;63320;50.768;6.724;2022-12-10T03:54:30;99474.84;;;-1.02;82.45
74794;BME280;63320;50.768;6.724;2022-12-10T03:56:55;99473.16;;;-0.43;81.84
74794;BME280;63320;50.768;6.724;2022-12-10T03:59:20;99473.53;;;-0.71;82.83
74794;BME280;63320;50.768;6.724;2022-12-10T04:01:46;99473.25;;;-0.51;82.05
74794;BME280;63320;50.768;6.724;2022-12-10T04:04:11;99474.44;;;-0.18;81.56
74794;BME280;63320;50.768;6.724;2022-12-10T04:06:38;99477.75;;;-0.08;81.01
74794;BME280;63320;50.768;6.724;2022-12-10T04:09:03;99475.78;;;0.05;80.63
74794;BME280;63320;50.768;6.724;2022-12-10T04:11:30;99477.34;;;0.13;80.35
74794;BME280;63320;50.768;6.724;2022-12-10T04:13:55;99477.88;;;-0.17;80.90
74794;BME280;63320;50.768;6.724;2022-12-10T04:16:21;99484.69;;;-0.67;82.02
74794;BME280;63320;50.768;6.724;2022-12-10T04:18:46;99484.38;;;-0.47;82.87
74794;BME280;63320;50.768;6.724;2022-12-10T04:21:12;99493.50;;;-0.23;82.11
74794;BME280;63320;50.768;6.724;2022-12-10T04:23:37;99494.00;;;-0.57;82.37
74794;BME280;63320;50.768;6.724;2022-12-10T04:26:02;99494.06;;;-0.05;81.54
74794;BME280;63320;50.768;6.724;2022-12-10T04:28:29;99493.56;;;-0.85;83.05
74794;BME280;63320;50.768;6.724;2022-12-10T04:30:54;99492.63;;;-0.22;82.68
74794;BME280;63320;50.768;6.724;2022-12-10T04:33:20;99495.69;;;-0.01;81.32
74794;BME280;63320;50.768;6.724;2022-12-10T04:35:45;99498.28;;;-0.55;82.28
74794;BME280;63320;50.768;6.724;2022-12-10T04:38:10;99495.47;;;-0.41;82.44
74794;BME280;63320;50.768;6.724;2022-12-10T04:40:36;99497.81;;;-0.24;82.52
74794;BME280;63320;50.768;6.724;2022-12-10T04:43:01;99501.72;;;-0.02;81.49
74794;BME280;63320;50.768;6.724;2022-12-10T04:45:28;99496.75;;;-0.12;81.13
74794;BME280;63320;50.768;6.724;2022-12-10T04:47:53;99496.00;;;-0.19;81.40
74794;BME280;63320;50.768;6.724;2022-12-10T04:50:18;99498.78;;;-0.31;82.45
74794;BME280;63320;50.768;6.724;2022-12-10T04:52:44;99501.84;;;-0.08;81.63
74794;BME280;63320;50.768;6.724;2022-12-10T04:55:09;99500.06;;;-0.04;81.36
74794;BME280;63320;50.768;6.724;2022-12-10T04:57:34;99502.06;;;-0.20;81.87
74794;BME280;63320;50.768;6.724;2022-12-10T05:00:00;99501.78;;;-0.03;82.27
74794;BME280;63320;50.768;6.724;2022-12-10T05:02:26;99501.56;;;0.09;81.63
74794;BME280;63320;50.768;6.724;2022-12-10T05:04:52;99500.91;;;-0.04;81.09
74794;BME280;63320;50.768;6.724;2022-12-10T05:07:17;99495.56;;;0.07;81.34
74794;BME280;63320;50.768;6.724;2022-12-10T05:09:42;99496.47;;;0.05;81.39
74794;BME280;63320;50.768;6.724;2022-12-10T05:12:08;99500.66;;;0.12;81.32
74794;BME280;63320;50.768;6.724;2022-12-10T05:14:33;99510.00;;;0.20;81.02
74794;BME280;63320;50.768;6.724;2022-12-10T05:16:58;99501.91;;;-0.12;81.84
74794;BME280;63320;50.768;6.724;2022-12-10T05:19:25;99505.34;;;-0.12;81.92
74794;BME280;63320;50.768;6.724;2022-12-10T05:21:50;99498.31;;;-0.58;83.61
74794;BME280;63320;50.768;6.724;2022-12-10T05:24:18;99505.78;;;0.13;81.85
74794;BME280;63320;50.768;6.724;2022-12-10T05:26:44;99507.78;;;-0.03;81.10
74794;BME280;63320;50.768;6.724;2022-12-10T05:29:11;99505.75;;;0.15;81.20
74794;BME280;63320;50.768;6.724;2022-12-10T05:31:37;99509.47;;;0.00;80.69
74794;BME280;63320;50.768;6.724;2022-12-10T05:34:03;99505.25;;;-0.06;80.86
74794;BME280;63320;50.768;6.724;2022-12-10T05:36:31;99506.09;;;-0.05;81.35
74794;BME280;63320;50.768;6.724;2022-12-10T05:38:57;99505.34;;;-0.12;81.60
74794;BME280;63320;50.768;6.724;2022-12-10T05:41:25;99508.66;;;-0.04;81.45
74794;BME280;63320;50.768;6.724;2022-12-10T05:43:53;99513.25;;;-0.21;81.88
74794;BME280;63320;50.768;6.724;2022-12-10T05:46:20;99517.47;;;-0.15;81.88
74794;BME280;63320;50.768;6.724;2022-12-10T05:48:45;99514.75;;;-0.08;81.82
74794;BME280;63320;50.768;6.724;2022-12-10T05:51:13;99519.09;;;-0.08;81.83
74794;BME280;63320;50.768;6.724;2022-12-10T05:53:40;99517.53;;;-0.18;81.85
74794;BME280;63320;50.768;6.724;2022-12-10T05:56:07;99520.31;;;0.22;80.94
74794;BME280;63320;50.768;6.724;2022-12-10T05:58:33;99522.28;;;0.06;80.78
74794;BME280;63320;50.768;6.724;2022-12-10T06:00:59;99526.47;;;-0.41;82.01
74794;BME280;63320;50.768;6.724;2022-12-10T06:03:26;99514.06;;;-0.17;82.78
74794;BME280;63320;50.768;6.724;2022-12-10T06:05:52;99518.78;;;0.10;81.61
74794;BME280;63320;50.768;6.724;2022-12-10T06:08:18;99518.03;;;-0.52;82.69
74794;BME280;63320;50.768;6.724;2022-12-10T06:10:44;99519.47;;;-0.33;82.92
74794;BME280;63320;50.768;6.724;2022-12-10T06:13:10;99519.44;;;-0.31;83.10
74794;BME280;63320;50.768;6.724;2022-12-10T06:15:38;99518.38;;;-0.18;82.66
74794;BME280;63320;50.768;6.724;2022-12-10T06:18:04;99519.13;;;-0.10;81.72
74794;BME280;63320;50.768;6.724;2022-12-10T06:20:29;99522.47;;;-0.05;81.94
74794;BME280;63320;50.768;6.724;2022-12-10T06:22:54;99522.38;;;-0.54;83.03
74794;BME280;63320;50.768;6.724;2022-12-10T06:25:20;99520.72;;;-0.03;81.84
74794;BME280;63320;50.768;6.724;2022-12-10T06:27:46;99517.38;;;-0.66;83.21
74794;BME280;63320;50.768;6.724;2022-12-10T06:30:12;99522.16;;;-0.40;82.56
74794;BME280;63320;50.768;6.724;2022-12-10T06:32:37;99522.06;;;0.18;81.59
74794;BME280;63320;50.768;6.724;2022-12-10T06:35:03;99522.38;;;-0.56;82.71
74794;BME280;63320;50.768;6.724;2022-12-10T06:37:29;99530.00;;;-0.46;83.42
74794;BME280;63320;50.768;6.724;2022-12-10T06:39:54;99536.91;;;0.07;82.33
74794;BME280;63320;50.768;6.724;2022-12-10T06:42:20;99533.78;;;0.39;80.67
74794;BME280;63320;50.768;6.724;2022-12-10T06:44:46;99531.78;;;-0.50;82.87
74794;BME280;63320;50.768;6.724;2022-12-10T06:47:12;99527.81;;;-0.17;82.31
74794;BME280;63320;50.768;6.724;2022-12-10T06:49:38;99532.00;;;-0.08;82.73
74794;BME280;63320;50.768;6.724;2022-12-10T06:52:03;99538.16;;;-0.17;82.05
74794;BME280;63320;50.768;6.724;2022-12-10T06:54:29;99529.84;;;-0.36;81.85
74794;BME280;63320;50.768;6.724;2022-12-10T06:56:54;99540.09;;;-0.31;82.87
74794;BME280;63320;50.768;6.724;2022-12-10T06:59:19;99533.88;;;-0.18;81.45
74794;BME280;63320;50.768;6.724;2022-12-10T07:01:46;99545.88;;;-0.14;82.26
74794;BME280;63320;50.768;6.724;2022-12-10T07:04:12;99548.28;;;-0.60;83.13
74794;BME280;63320;50.768;6.724;2022-12-10T07:06:37;99554.50;;;-0.75;83.76
74794;BME280;63320;50.768;6.724;2022-12-10T07:09:03;99556.81;;;-0.57;83.14
74794;BME280;63320;50.768;6.724;2022-12-10T07:11:28;99559.31;;;-0.50;83.62
74794;BME280;63320;50.768;6.724;2022-12-10T07:13:54;99562.28;;;-0.78;85.19
74794;BME280;63320;50.768;6.724;2022-12-10T07:16:21;99558.38;;;-0.43;84.51
74794;BME280;63320;50.768;6.724;2022-12-10T07:18:49;99561.06;;;0.06;82.62
74794;BME280;63320;50.768;6.724;2022-12-10T07:21:15;99557.78;;;-0.04;81.35
74794;BME280;63320;50.768;6.724;2022-12-10T07:23:41;99563.19;;;-0.20;82.56
74794;BME280;63320;50.768;6.724;2022-12-10T07:26:06;99560.94;;;-0.43;82.15
74794;BME280;63320;50.768;6.724;2022-12-10T07:28:33;99571.16;;;-0.34;83.55
74794;BME280;63320;50.768;6.724;2022-12-10T07:31:00;99572.28;;;0.05;82.17
74794;BME280;63320;50.768;6.724;2022-12-10T07:33:26;99567.53;;;-0.87;83.97
74794;BME280;63320;50.768;6.724;2022-12-10T07:35:52;99571.09;;;-0.30;83.87
74794;BME280;63320;50.768;6.724;2022-12-10T07:38:18;99582.03;;;-0.14;83.09
74794;BME280;63320;50.768;6.724;2022-12-10T07:40:43;99581.44;;;-0.33;83.01
74794;BME280;63320;50.768;6.724;2022-12-10T07:43:08;99585.91;;;-0.42;83.23
74794;BME280;63320;50.768;6.724;2022-12-10T07:45:34;99580.25;;;-0.09;82.78
74794;BME280;63320;50.768;6.724;2022-12-10T07:47:59;99591.75;;;0.26;81.69
74794;BME280;63320;50.768;6.724;2022-12-10T07:50:25;99582.28;;;0.25;80.94
74794;BME280;63320;50.768;6.724;2022-12-10T07:52:51;99589.50;;;-0.56;83.08
74794;BME280;63320;50.768;6.724;2022-12-10T07:55:17;99590.13;;;-0.37;84.02
74794;BME280;63320;50.768;6.724;2022-12-10T07:57:42;99591.84;;;0.21;82.13
74794;BME280;63320;50.768;6.724;2022-12-10T08:00:08;99594.97;;;-0.15;82.64
74794;BME280;63320;50.768;6.724;2022-12-10T08:02:35;99598.44;;;-0.16;82.09
74794;BME280;63320;50.768;6.724;2022-12-10T08:05:00;99597.81;;;-0.32;83.32
74794;BME280;63320;50.768;6.724;2022-12-10T08:07:25;99592.34;;;-0.75;84.53
74794;BME280;63320;50.768;6.724;2022-12-10T08:09:52;99596.50;;;-0.64;85.04
74794;BME280;63320;50.768;6.724;2022-12-10T08:12:17;99607.63;;;0.03;82.50
74794;BME280;63320;50.768;6.724;2022-12-10T08:14:43;99609.25;;;0.09;81.44
74794;BME280;63320;50.768;6.724;2022-12-10T08:17:08;99613.22;;;0.31;81.43
74794;BME280;63320;50.768;6.724;2022-12-10T08:19:33;99608.91;;;0.30;80.94
74794;BME280;63320;50.768;6.724;2022-12-10T08:21:59;99621.06;;;0.25;80.91
74794;BME280;63320;50.768;6.724;2022-12-10T08:24:24;99623.47;;;0.37;80.67
74794;BME280;63320;50.768;6.724;2022-12-10T08:26:51;99618.59;;;0.17;80.84
74794;BME280;63320;50.768;6.724;2022-12-10T08:29:16;99623.88;;;0.10;81.36
74794;BME280;63320;50.768;6.724;2022-12-10T08:31:42;99628.22;;;0.08;80.96
74794;BME280;63320;50.768;6.724;2022-12-10T08:34:12;99629.88;;;0.13;80.95
74794;BME280;63320;50.768;6.724;2022-12-10T08:36:37;99635.78;;;0.20;81.07
74794;BME280;63320;50.768;6.724;2022-12-10T08:39:03;99632.78;;;0.47;80.18
74794;BME280;63320;50.768;6.724;2022-12-10T08:41:28;99632.03;;;0.39;79.78
74794;BME280;63320;50.768;6.724;2022-12-10T08:43:55;99626.19;;;0.28;80.75
74794;BME280;63320;50.768;6.724;2022-12-10T08:46:20;99637.47;;;-0.36;82.28
74794;BME280;63320;50.768;6.724;2022-12-10T08:48:46;99641.59;;;0.34;81.03
74794;BME280;63320;50.768;6.724;2022-12-10T08:51:14;99638.22;;;0.31;80.73
74794;BME280;63320;50.768;6.724;2022-12-10T08:53:40;99641.00;;;2.01;83.51
74794;BME280;63320;50.768;6.724;2022-12-10T08:56:06;99646.06;;;0.77;78.78
74794;BME280;63320;50.768;6.724;2022-12-10T08:58:32;99646.13;;;0.21;80.60
74794;BME280;63320;50.768;6.724;2022-12-10T09:00:59;99650.84;;;0.50;80.60
74794;BME280;63320;50.768;6.724;2022-12-10T09:03:24;99660.84;;;0.70;79.16
74794;BME280;63320;50.768;6.724;2022-12-10T09:05:50;99652.50;;;0.53;79.90
74794;BME280;63320;50.768;6.724;2022-12-10T09:08:15;99646.88;;;0.28;79.86
74794;BME280;63320;50.768;6.724;2022-12-10T09:10:41;99645.00;;;-0.19;81.96
74794;BME280;63320;50.768;6.724;2022-12-10T09:13:06;99642.06;;;0.05;81.74
74794;BME280;63320;50.768;6.724;2022-12-10T09:15:32;99640.75;;;0.34;81.10
74794;BME280;63320;50.768;6.724;2022-12-10T09:17:59;99634.75;;;0.32;81.00
74794;BME280;63320;50.768;6.724;2022-12-10T09:20:24;99645.31;;;0.18;81.13
74794;BME280;63320;50.768;6.724;2022-12-10T09:22:49;99649.19;;;0.46;80.78
74794;BME280;63320;50.768;6.724;2022-12-10T09:25:15;99645.88;;;0.37;80.09
74794;BME280;63320;50.768;6.724;2022-12-10T09:27:41;99659.19;;;0.65;79.24
74794;BME280;63320;50.768;6.724;2022-12-10T09:30:08;99648.03;;;0.09;80.38
74794;BME280;63320;50.768;6.724;2022-12-10T09:32:33;99658.44;;;0.06;81.88
74794;BME280;63320;50.768;6.724;2022-12-10T09:35:00;99653.69;;;0.34;80.59
74794;BME280;63320;50.768;6.724;2022-12-10T09:37:26;99658.56;;;0.52;81.60
74794;BME280;63320;50.768;6.724;2022-12-10T09:39:51;99659.25;;;0.08;81.58
74794;BME280;63320;50.768;6.724;2022-12-10T09:42:29;99657.06;;;0.37;80.76
74794;BME280;63320;50.768;6.724;2022-12-10T09:45:01;99655.41;;;0.33;81.08
74794;BME280;63320;50.768;6.724;2022-12-10T09:47:32;99661.47;;;0.32;81.07
74794;BME280;63320;50.768;6.724;2022-12-10T09:50:07;99664.03;;;0.35;80.86
74794;BME280;63320;50.768;6.724;2022-12-10T09:52:36;99659.22;;;0.09;81.41
74794;BME280;63320;50.768;6.724;2022-12-10T09:55:08;99671.09;;;0.22;81.20
74794;BME280;63320;50.768;6.724;2022-12-10T09:57:38;99662.63;;;0.13;81.31
74794;BME280;63320;50.768;6.724;2022-12-10T10:00:10;99666.31;;;0.52;80.65
74794;BME280;63320;50.768;6.724;2022-12-10T10:02:41;99661.66;;;0.18;80.73
74794;BME280;63320;50.768;6.724;2022-12-10T10:05:11;99671.00;;;0.29;80.60
74794;BME280;63320;50.768;6.724;2022-12-10T10:07:42;99668.31;;;0.36;80.23
74794;BME280;63320;50.768;6.724;2022-12-10T10:10:19;99664.22;;;0.21;80.81
74794;BME280;63320;50.768;6.724;2022-12-10T10:12:45;99673.50;;;0.33;80.62
74794;BME280;63320;50.768;6.724;2022-12-10T10:15:14;99661.63;;;0.20;80.76
74794;BME280;63320;50.768;6.724;2022-12-10T10:17:41;99665.44;;;-0.03;81.04
74794;BME280;63320;50.768;6.724;2022-12-10T10:20:08;99658.56;;;-0.05;80.82
74794;BME280;63320;50.768;6.724;2022-12-10T10:22:34;99660.59;;;0.33;81.04
74794;BME280;63320;50.768;6.724;2022-12-10T10:25:00;99662.03;;;0.49;80.08
74794;BME280;63320;50.768;6.724;2022-12-10T10:27:28;99653.75;;;0.29;79.92
74794;BME280;63320;50.768;6.724;2022-12-10T10:29:56;99659.78;;;0.31;80.45
74794;BME280;63320;50.768;6.724;2022-12-10T10:32:23;99654.16;;;0.57;80.19
74794;BME280;63320;50.768;6.724;2022-12-10T10:34:53;99660.53;;;0.38;80.19
74794;BME280;63320;50.768;6.724;2022-12-10T10:37:22;99662.00;;;0.52;79.99
74794;BME280;63320;50.768;6.724;2022-12-10T10:39:49;99660.69;;;0.27;79.94
74794;BME280;63320;50.768;6.724;2022-12-10T10:42:25;99658.97;;;0.26;80.34
74794;BME280;63320;50.768;6.724;2022-12-10T10:44:52;99661.44;;;0.35;80.93
74794;BME280;63320;50.768;6.724;2022-12-10T10:47:26;99658.97;;;0.26;80.89
74794;BME280;63320;50.768;6.724;2022-12-10T10:49:51;99665.75;;;0.33;80.02
74794;BME280;63320;50.768;6.724;2022-12-10T10:52:17;99667.47;;;0.34;80.05
74794;BME280;63320;50.768;6.724;2022-12-10T10:54:45;99671.28;;;0.10;80.70
74794;BME280;63320;50.768;6.724;2022-12-10T10:57:12;99666.13;;;0.10;82.27
74794;BME280;63320;50.768;6.724;2022-12-10T10:59:41;99660.34;;;-0.10;82.64
74794;BME280;63320;50.768;6.724;2022-12-10T11:02:17;99662.94;;;-0.09;83.10
74794;BME280;63320;50.768;6.724;2022-12-10T11:04:46;99660.78;;;0.19;81.79
74794;BME280;63320;50.768;6.724;2022-12-10T11:07:18;99656.38;;;0.28;80.78
74794;BME280;63320;50.768;6.724;2022-12-10T11:09:45;99665.88;;;0.25;81.22
74794;BME280;63320;50.768;6.724;2022-12-10T11:15:05;99664.91;;;0.33;80.55
74794;BME280;63320;50.768;6.724;2022-12-10T11:17:52;99658.91;;;0.29;80.21
74794;BME280;63320;50.768;6.724;2022-12-10T11:20:20;99663.06;;;0.39;79.28
74794;BME280;63320;50.768;6.724;2022-12-10T11:22:49;99668.78;;;0.61;79.10
74794;BME280;63320;50.768;6.724;2022-12-10T11:25:17;99664.06;;;0.32;79.52
74794;BME280;63320;50.768;6.724;2022-12-10T11:27:50;99673.34;;;0.44;79.80
74794;BME280;63320;50.768;6.724;2022-12-10T11:30:23;99669.13;;;0.38;78.59
74794;BME280;63320;50.768;6.724;2022-12-10T11:33:00;99669.25;;;0.29;79.18
74794;BME280;63320;50.768;6.724;2022-12-10T11:35:44;99672.63;;;0.36;78.08
74794;BME280;63320;50.768;6.724;2022-12-10T11:38:21;99664.41;;;0.63;77.62
74794;BME280;63320;50.768;6.724;2022-12-10T11:40:49;99660.31;;;0.99;77.27
74794;BME280;63320;50.768;6.724;2022-12-10T11:43:38;99667.38;;;0.91;78.69
74794;BME280;63320;50.768;6.724;2022-12-10T11:46:19;99666.97;;;0.65;77.45
74794;BME280;63320;50.768;6.724;2022-12-10T11:49:02;99667.84;;;0.65;78.13
74794;BME280;63320;50.768;6.724;2022-12-10T11:51:35;99660.47;;;0.92;77.89
74794;BME280;63320;50.768;6.724;2022-12-10T11:54:19;99657.72;;;0.99;77.00
74794;BME280;63320;50.768;6.724;2022-12-10T11:57:01;99666.03;;;0.69;77.50
74794;BME280;63320;50.768;6.724;2022-12-10T11:59:33;99666.78;;;0.77;78.10
74794;BME280;63320;50.768;6.724;2022-12-10T12:02:19;99672.25;;;0.59;78.46
74794;BME280;63320;50.768;6.724;2022-12-10T12:05:03;99663.25;;;0.80;78.14
74794;BME280;63320;50.768;6.724;2022-12-10T12:07:38;99659.34;;;1.07;77.60
74794;BME280;63320;50.768;6.724;2022-12-10T12:10:41;99677.31;;;1.14;77.29
74794;BME280;63320;50.768;6.724;2022-12-10T12:13:15;99672.41;;;0.99;77.55
74794;BME280;63320;50.768;6.724;2022-12-10T12:15:44;99675.66;;;1.10;76.66
74794;BME280;63320;50.768;6.724;2022-12-10T12:18:17;99670.97;;;0.83;77.30
74794;BME280;63320;50.768;6.724;2022-12-10T12:20:47;99673.34;;;0.96;77.72
74794;BME280;63320;50.768;6.724;2022-12-10T12:23:16;99679.84;;;1.17;76.62
74794;BME280;63320;50.768;6.724;2022-12-10T12:25:45;99677.00;;;1.31;76.28
74794;BME280;63320;50.768;6.724;2022-12-10T12:28:18;99683.13;;;1.25;75.95
74794;BME280;63320;50.768;6.724;2022-12-10T12:30:47;99682.19;;;1.31;75.47
74794;BME280;63320;50.768;6.724;2022-12-10T12:33:20;99687.44;;;0.78;76.54
74794;BME280;63320;50.768;6.724;2022-12-10T12:35:51;99682.91;;;0.90;77.23
74794;BME280;63320;50.768;6.724;2022-12-10T12:38:24;99684.34;;;1.08;76.84
74794;BME280;63320;50.768;6.724;2022-12-10T12:40:54;99679.56;;;1.33;76.75
74794;BME280;63320;50.768;6.724;2022-12-10T12:43:26;99672.38;;;1.47;75.25
74794;BME280;63320;50.768;6.724;2022-12-10T12:45:54;99674.09;;;1.01;75.27
74794;BME280;63320;50.768;6.724;2022-12-10T12:48:23;99674.34;;;0.88;76.13
74794;BME280;63320;50.768;6.724;2022-12-10T12:50:53;99674.06;;;1.03;76.09
74794;BME280;63320;50.768;6.724;2022-12-10T12:53:21;99682.84;;;0.94;76.85
74794;BME280;63320;50.768;6.724;2022-12-10T12:55:55;99672.91;;;1.19;76.39
74794;BME280;63320;50.768;6.724;2022-12-10T12:58:31;99676.31;;;1.21;75.17
74794;BME280;63320;50.768;6.724;2022-12-10T13:01:06;99673.13;;;1.07;75.53
74794;BME280;63320;50.768;6.724;2022-12-10T13:03:36;99663.97;;;1.36;74.99
74794;BME280;63320;50.768;6.724;2022-12-10T13:06:20;99675.00;;;1.00;75.71
74794;BME280;63320;50.768;6.724;2022-12-10T13:08:47;99666.34;;;1.45;75.59
74794;BME280;63320;50.768;6.724;2022-12-10T13:11:19;99658.13;;;1.68;74.33